sensor_id;sensor_type;location;lat;lon;timestamp;P1;durP1;ratioP1;P2;durP2;ratioP2
77598;SDS011;66758;52.078;5.070;2023-07-02T00:01:03;9.00;;;4.13;;
77598;SDS011;66758;52.078;5.070;2023-07-02T00:03:28;10.83;;;3.73;;
77598;SDS011;66758;52.078;5.070;2023-07-02T00:05:54;10.13;;;4.20;;
77598;SDS011;66758;52.078;5.070;2023-07-02T00:08:21;13.32;;;4.47;;
77598;SDS011;66758;52.078;5.070;2023-07-02T00:10:47;11.48;;;3.97;;
77598;SDS011;66758;52.078;5.070;2023-07-02T00:13:12;14.33;;;4.33;;
77598;SDS011;66758;52.078;5.070;2023-07-02T00:15:38;10.43;;;4.00;;
77598;SDS011;66758;52.078;5.070;2023-07-02T00:18:04;8.50;;;3.43;;
77598;SDS011;66758;52.078;5.070;2023-07-02T00:20:30;10.32;;;3.50;;
77598;SDS011;66758;52.078;5.070;2023-07-02T00:23:00;8.45;;;4.30;;
77598;SDS011;66758;52.078;5.070;2023-07-02T00:25:25;14.30;;;3.90;;
77598;SDS011;66758;52.078;5.070;2023-07-02T00:27:51;12.93;;;4.05;;
77598;SDS011;66758;52.078;5.070;2023-07-02T00:30:18;9.13;;;3.57;;
77598;SDS011;66758;52.078;5.070;2023-07-02T00:32:43;10.63;;;4.07;;
77598;SDS011;66758;52.078;5.070;2023-07-02T00:35:09;11.80;;;4.40;;
77598;SDS011;66758;52.078;5.070;2023-07-02T00:37:34;10.57;;;4.30;;
77598;SDS011;66758;52.078;5.070;2023-07-02T00:40:00;13.57;;;4.27;;
77598;SDS011;66758;52.078;5.070;2023-07-02T00:42:25;13.70;;;4.37;;
77598;SDS011;66758;52.078;5.070;2023-07-02T00:44:54;8.73;;;3.55;;
77598;SDS011;66758;52.078;5.070;2023-07-02T00:47:21;9.65;;;4.07;;
77598;SDS011;66758;52.078;5.070;2023-07-02T00:49:48;11.98;;;3.97;;
77598;SDS011;66758;52.078;5.070;2023-07-02T00:52:13;10.83;;;3.40;;
77598;SDS011;66758;52.078;5.070;2023-07-02T00:54:38;12.27;;;3.97;;
77598;SDS011;66758;52.078;5.070;2023-07-02T00:57:05;12.65;;;4.18;;
77598;SDS011;66758;52.078;5.070;2023-07-02T00:59:31;11.00;;;3.53;;
77598;SDS011;66758;52.078;5.070;2023-07-02T01:02:03;11.43;;;3.75;;
77598;SDS011;66758;52.078;5.070;2023-07-02T01:04:30;12.13;;;4.20;;
77598;SDS011;66758;52.078;5.070;2023-07-02T01:06:55;12.85;;;3.58;;
77598;SDS011;66758;52.078;5.070;2023-07-02T01:09:24;12.52;;;4.18;;
77598;SDS011;66758;52.078;5.070;2023-07-02T01:11:54;14.05;;;4.28;;
77598;SDS011;66758;52.078;5.070;2023-07-02T01:14:35;10.45;;;4.43;;
77598;SDS011;66758;52.078;5.070;2023-07-02T01:17:04;11.03;;;4.03;;
77598;SDS011;66758;52.078;5.070;2023-07-02T01:21:59;11.90;;;3.88;;
77598;SDS011;66758;52.078;5.070;2023-07-02T01:24:25;18.45;;;4.47;;
77598;SDS011;66758;52.078;5.070;2023-07-02T01:26:52;14.82;;;4.40;;
77598;SDS011;66758;52.078;5.070;2023-07-02T01:29:19;14.20;;;4.33;;
77598;SDS011;66758;52.078;5.070;2023-07-02T01:31:46;10.95;;;3.88;;
77598;SDS011;66758;52.078;5.070;2023-07-02T01:34:12;14.30;;;4.13;;
77598;SDS011;66758;52.078;5.070;2023-07-02T01:36:39;13.45;;;4.50;;
77598;SDS011;66758;52.078;5.070;2023-07-02T01:39:05;13.37;;;4.13;;
77598;SDS011;66758;52.078;5.070;2023-07-02T01:41:36;14.05;;;4.00;;
77598;SDS011;66758;52.078;5.070;2023-07-02T01:44:16;14.68;;;4.53;;
77598;SDS011;66758;52.078;5.070;2023-07-02T01:46:42;15.23;;;4.33;;
77598;SDS011;66758;52.078;5.070;2023-07-02T01:49:07;16.20;;;4.28;;
77598;SDS011;66758;52.078;5.070;2023-07-02T01:51:33;12.63;;;4.70;;
77598;SDS011;66758;52.078;5.070;2023-07-02T01:53:59;13.25;;;4.00;;
77598;SDS011;66758;52.078;5.070;2023-07-02T01:56:25;13.43;;;4.13;;
77598;SDS011;66758;52.078;5.070;2023-07-02T01:58:51;12.10;;;4.50;;
77598;SDS011;66758;52.078;5.070;2023-07-02T02:01:17;14.63;;;5.18;;
77598;SDS011;66758;52.078;5.070;2023-07-02T02:03:42;14.80;;;4.80;;
77598;SDS011;66758;52.078;5.070;2023-07-02T02:06:07;17.47;;;5.13;;
77598;SDS011;66758;52.078;5.070;2023-07-02T02:08:33;14.55;;;4.53;;
77598;SDS011;66758;52.078;5.070;2023-07-02T02:10:59;15.33;;;5.13;;
77598;SDS011;66758;52.078;5.070;2023-07-02T02:13:25;10.35;;;4.25;;
77598;SDS011;66758;52.078;5.070;2023-07-02T02:15:51;11.33;;;4.27;;
77598;SDS011;66758;52.078;5.070;2023-07-02T02:18:16;11.98;;;4.35;;
77598;SDS011;66758;52.078;5.070;2023-07-02T02:20:42;14.27;;;4.60;;
77598;SDS011;66758;52.078;5.070;2023-07-02T02:23:07;11.30;;;4.20;;
77598;SDS011;66758;52.078;5.070;2023-07-02T02:25:33;16.90;;;5.13;;
77598;SDS011;66758;52.078;5.070;2023-07-02T02:27:58;12.60;;;4.20;;
77598;SDS011;66758;52.078;5.070;2023-07-02T02:30:24;15.97;;;4.50;;
77598;SDS011;66758;52.078;5.070;2023-07-02T02:32:49;10.30;;;4.13;;
77598;SDS011;66758;52.078;5.070;2023-07-02T02:35:15;11.88;;;4.57;;
77598;SDS011;66758;52.078;5.070;2023-07-02T02:37:40;15.33;;;5.07;;
77598;SDS011;66758;52.078;5.070;2023-07-02T02:40:09;10.77;;;4.20;;
77598;SDS011;66758;52.078;5.070;2023-07-02T02:42:35;11.60;;;4.35;;
77598;SDS011;66758;52.078;5.070;2023-07-02T02:45:01;14.73;;;4.78;;
77598;SDS011;66758;52.078;5.070;2023-07-02T02:47:27;11.07;;;4.83;;
77598;SDS011;66758;52.078;5.070;2023-07-02T02:49:52;17.17;;;5.13;;
77598;SDS011;66758;52.078;5.070;2023-07-02T02:52:18;16.37;;;5.53;;
77598;SDS011;66758;52.078;5.070;2023-07-02T02:54:43;14.80;;;5.17;;
77598;SDS011;66758;52.078;5.070;2023-07-02T02:57:10;12.55;;;4.50;;
77598;SDS011;66758;52.078;5.070;2023-07-02T02:59:36;16.30;;;5.38;;
77598;SDS011;66758;52.078;5.070;2023-07-02T03:02:01;12.23;;;4.40;;
77598;SDS011;66758;52.078;5.070;2023-07-02T03:04:27;13.25;;;5.22;;
77598;SDS011;66758;52.078;5.070;2023-07-02T03:06:53;11.83;;;4.60;;
77598;SDS011;66758;52.078;5.070;2023-07-02T03:09:19;12.17;;;4.50;;
77598;SDS011;66758;52.078;5.070;2023-07-02T03:11:45;12.70;;;4.32;;
77598;SDS011;66758;52.078;5.070;2023-07-02T03:14:11;13.23;;;4.97;;
77598;SDS011;66758;52.078;5.070;2023-07-02T03:16:37;15.53;;;4.97;;
77598;SDS011;66758;52.078;5.070;2023-07-02T03:19:02;11.93;;;5.20;;
77598;SDS011;66758;52.078;5.070;2023-07-02T03:21:28;14.35;;;5.00;;
77598;SDS011;66758;52.078;5.070;2023-07-02T03:23:55;19.47;;;5.03;;
77598;SDS011;66758;52.078;5.070;2023-07-02T03:26:20;15.15;;;4.80;;
77598;SDS011;66758;52.078;5.070;2023-07-02T03:28:47;11.65;;;4.88;;
77598;SDS011;66758;52.078;5.070;2023-07-02T03:31:13;20.17;;;5.83;;
77598;SDS011;66758;52.078;5.070;2023-07-02T03:33:38;14.87;;;5.07;;
77598;SDS011;66758;52.078;5.070;2023-07-02T03:36:04;13.85;;;4.68;;
77598;SDS011;66758;52.078;5.070;2023-07-02T03:38:29;13.77;;;4.53;;
77598;SDS011;66758;52.078;5.070;2023-07-02T03:40:56;12.85;;;5.00;;
77598;SDS011;66758;52.078;5.070;2023-07-02T03:43:21;14.87;;;5.40;;
77598;SDS011;66758;52.078;5.070;2023-07-02T03:45:47;15.43;;;5.80;;
77598;SDS011;66758;52.078;5.070;2023-07-02T03:48:12;15.82;;;4.78;;
77598;SDS011;66758;52.078;5.070;2023-07-02T03:50:38;11.63;;;4.53;;
77598;SDS011;66758;52.078;5.070;2023-07-02T03:53:03;17.87;;;5.87;;
77598;SDS011;66758;52.078;5.070;2023-07-02T03:55:29;17.97;;;4.67;;
77598;SDS011;66758;52.078;5.070;2023-07-02T03:57:54;12.60;;;5.10;;
77598;SDS011;66758;52.078;5.070;2023-07-02T04:00:20;16.67;;;5.13;;
77598;SDS011;66758;52.078;5.070;2023-07-02T04:02:45;12.50;;;4.30;;
77598;SDS011;66758;52.078;5.070;2023-07-02T04:05:11;14.43;;;5.28;;
77598;SDS011;66758;52.078;5.070;2023-07-02T04:07:36;12.80;;;4.67;;
77598;SDS011;66758;52.078;5.070;2023-07-02T04:10:02;14.80;;;4.60;;
77598;SDS011;66758;52.078;5.070;2023-07-02T04:12:27;14.07;;;5.35;;
77598;SDS011;66758;52.078;5.070;2023-07-02T04:14:53;16.63;;;4.90;;
77598;SDS011;66758;52.078;5.070;2023-07-02T04:17:18;10.87;;;4.13;;
77598;SDS011;66758;52.078;5.070;2023-07-02T04:19:44;14.77;;;5.22;;
77598;SDS011;66758;52.078;5.070;2023-07-02T04:22:09;11.57;;;4.63;;
77598;SDS011;66758;52.078;5.070;2023-07-02T04:24:35;17.40;;;5.00;;
77598;SDS011;66758;52.078;5.070;2023-07-02T04:27:14;12.20;;;4.88;;
77598;SDS011;66758;52.078;5.070;2023-07-02T04:29:42;16.73;;;5.28;;
77598;SDS011;66758;52.078;5.070;2023-07-02T04:32:08;14.27;;;5.13;;
77598;SDS011;66758;52.078;5.070;2023-07-02T04:34:34;10.60;;;4.00;;
77598;SDS011;66758;52.078;5.070;2023-07-02T04:37:01;14.43;;;4.73;;
77598;SDS011;66758;52.078;5.070;2023-07-02T04:39:28;16.30;;;4.70;;
77598;SDS011;66758;52.078;5.070;2023-07-02T04:41:54;17.83;;;4.60;;
77598;SDS011;66758;52.078;5.070;2023-07-02T04:44:19;18.95;;;5.35;;
77598;SDS011;66758;52.078;5.070;2023-07-02T04:47:01;14.07;;;4.70;;
77598;SDS011;66758;52.078;5.070;2023-07-02T04:49:27;20.13;;;5.00;;
77598;SDS011;66758;52.078;5.070;2023-07-02T04:51:53;15.13;;;5.30;;
77598;SDS011;66758;52.078;5.070;2023-07-02T04:54:21;16.45;;;5.18;;
77598;SDS011;66758;52.078;5.070;2023-07-02T04:56:47;15.73;;;4.83;;
77598;SDS011;66758;52.078;5.070;2023-07-02T04:59:13;16.58;;;5.45;;
77598;SDS011;66758;52.078;5.070;2023-07-02T05:01:39;16.05;;;4.57;;
77598;SDS011;66758;52.078;5.070;2023-07-02T05:04:05;17.47;;;5.00;;
77598;SDS011;66758;52.078;5.070;2023-07-02T05:06:31;14.55;;;5.40;;
77598;SDS011;66758;52.078;5.070;2023-07-02T05:08:56;11.37;;;4.83;;
77598;SDS011;66758;52.078;5.070;2023-07-02T05:11:22;13.43;;;4.47;;
77598;SDS011;66758;52.078;5.070;2023-07-02T05:13:47;21.73;;;5.13;;
77598;SDS011;66758;52.078;5.070;2023-07-02T05:16:13;16.20;;;4.97;;
77598;SDS011;66758;52.078;5.070;2023-07-02T05:18:39;16.95;;;4.53;;
77598;SDS011;66758;52.078;5.070;2023-07-02T05:21:04;18.10;;;4.53;;
77598;SDS011;66758;52.078;5.070;2023-07-02T05:23:30;15.37;;;4.43;;
77598;SDS011;66758;52.078;5.070;2023-07-02T05:25:55;16.05;;;4.20;;
77598;SDS011;66758;52.078;5.070;2023-07-02T05:28:21;17.00;;;4.40;;
77598;SDS011;66758;52.078;5.070;2023-07-02T05:30:46;14.87;;;4.53;;
77598;SDS011;66758;52.078;5.070;2023-07-02T05:33:12;10.87;;;4.67;;
77598;SDS011;66758;52.078;5.070;2023-07-02T05:35:38;14.27;;;4.03;;
77598;SDS011;66758;52.078;5.070;2023-07-02T05:38:04;15.43;;;5.07;;
77598;SDS011;66758;52.078;5.070;2023-07-02T05:40:30;12.87;;;4.67;;
77598;SDS011;66758;52.078;5.070;2023-07-02T05:42:56;14.30;;;4.07;;
77598;SDS011;66758;52.078;5.070;2023-07-02T05:45:21;13.03;;;4.33;;
77598;SDS011;66758;52.078;5.070;2023-07-02T05:47:49;15.77;;;4.28;;
77598;SDS011;66758;52.078;5.070;2023-07-02T05:50:15;13.38;;;4.88;;
77598;SDS011;66758;52.078;5.070;2023-07-02T05:52:40;11.90;;;3.93;;
77598;SDS011;66758;52.078;5.070;2023-07-02T05:55:09;14.00;;;3.80;;
77598;SDS011;66758;52.078;5.070;2023-07-02T05:57:37;11.43;;;3.80;;
77598;SDS011;66758;52.078;5.070;2023-07-02T06:00:06;12.30;;;3.72;;
77598;SDS011;66758;52.078;5.070;2023-07-02T06:02:32;10.40;;;3.60;;
77598;SDS011;66758;52.078;5.070;2023-07-02T06:04:58;13.00;;;3.50;;
77598;SDS011;66758;52.078;5.070;2023-07-02T06:07:26;11.47;;;3.40;;
77598;SDS011;66758;52.078;5.070;2023-07-02T06:09:53;6.65;;;3.13;;
77598;SDS011;66758;52.078;5.070;2023-07-02T06:12:20;11.77;;;4.28;;
77598;SDS011;66758;52.078;5.070;2023-07-02T06:14:47;15.23;;;3.80;;
77598;SDS011;66758;52.078;5.070;2023-07-02T06:17:13;10.13;;;3.33;;
77598;SDS011;66758;52.078;5.070;2023-07-02T06:19:38;10.77;;;3.93;;
77598;SDS011;66758;52.078;5.070;2023-07-02T06:22:04;13.93;;;3.83;;
77598;SDS011;66758;52.078;5.070;2023-07-02T06:24:30;12.77;;;3.57;;
77598;SDS011;66758;52.078;5.070;2023-07-02T06:26:56;13.05;;;3.05;;
77598;SDS011;66758;52.078;5.070;2023-07-02T06:29:22;11.33;;;4.53;;
77598;SDS011;66758;52.078;5.070;2023-07-02T06:31:48;12.57;;;4.07;;
77598;SDS011;66758;52.078;5.070;2023-07-02T06:34:14;11.98;;;3.75;;
77598;SDS011;66758;52.078;5.070;2023-07-02T06:36:39;8.47;;;2.90;;
77598;SDS011;66758;52.078;5.070;2023-07-02T06:39:05;9.35;;;3.28;;
77598;SDS011;66758;52.078;5.070;2023-07-02T06:41:31;10.37;;;3.17;;
77598;SDS011;66758;52.078;5.070;2023-07-02T06:43:56;13.57;;;3.90;;
77598;SDS011;66758;52.078;5.070;2023-07-02T06:46:22;10.25;;;3.55;;
77598;SDS011;66758;52.078;5.070;2023-07-02T06:48:47;14.10;;;4.23;;
77598;SDS011;66758;52.078;5.070;2023-07-02T06:51:13;11.43;;;3.77;;
77598;SDS011;66758;52.078;5.070;2023-07-02T06:53:40;8.30;;;3.17;;
77598;SDS011;66758;52.078;5.070;2023-07-02T06:56:09;9.70;;;3.50;;
77598;SDS011;66758;52.078;5.070;2023-07-02T06:58:35;11.40;;;3.17;;
77598;SDS011;66758;52.078;5.070;2023-07-02T07:01:00;12.33;;;3.73;;
77598;SDS011;66758;52.078;5.070;2023-07-02T07:03:27;12.98;;;3.90;;
77598;SDS011;66758;52.078;5.070;2023-07-02T07:05:53;8.63;;;2.90;;
77598;SDS011;66758;52.078;5.070;2023-07-02T07:08:19;12.20;;;3.57;;
77598;SDS011;66758;52.078;5.070;2023-07-02T07:10:44;10.43;;;3.50;;
77598;SDS011;66758;52.078;5.070;2023-07-02T07:13:16;9.48;;;2.97;;
77598;SDS011;66758;52.078;5.070;2023-07-02T07:15:41;8.80;;;3.63;;
77598;SDS011;66758;52.078;5.070;2023-07-02T07:18:08;9.40;;;4.10;;
77598;SDS011;66758;52.078;5.070;2023-07-02T07:20:34;7.75;;;2.70;;
77598;SDS011;66758;52.078;5.070;2023-07-02T07:22:59;6.33;;;2.40;;
77598;SDS011;66758;52.078;5.070;2023-07-02T07:25:24;9.38;;;3.60;;
77598;SDS011;66758;52.078;5.070;2023-07-02T07:27:51;7.37;;;2.60;;
77598;SDS011;66758;52.078;5.070;2023-07-02T07:30:17;6.60;;;2.85;;
77598;SDS011;66758;52.078;5.070;2023-07-02T07:32:47;9.80;;;3.57;;
77598;SDS011;66758;52.078;5.070;2023-07-02T07:35:16;12.00;;;3.53;;
77598;SDS011;66758;52.078;5.070;2023-07-02T07:37:42;8.15;;;2.72;;
77598;SDS011;66758;52.078;5.070;2023-07-02T07:40:07;11.50;;;3.63;;
77598;SDS011;66758;52.078;5.070;2023-07-02T07:42:33;10.32;;;3.40;;
77598;SDS011;66758;52.078;5.070;2023-07-02T07:44:58;9.00;;;3.13;;
77598;SDS011;66758;52.078;5.070;2023-07-02T07:47:24;9.43;;;3.10;;
77598;SDS011;66758;52.078;5.070;2023-07-02T07:49:49;13.55;;;4.53;;
77598;SDS011;66758;52.078;5.070;2023-07-02T07:52:15;10.90;;;3.60;;
77598;SDS011;66758;52.078;5.070;2023-07-02T07:54:40;11.60;;;3.57;;
77598;SDS011;66758;52.078;5.070;2023-07-02T07:57:06;11.20;;;3.80;;
77598;SDS011;66758;52.078;5.070;2023-07-02T07:59:32;10.67;;;3.50;;
77598;SDS011;66758;52.078;5.070;2023-07-02T08:01:57;8.13;;;3.00;;
77598;SDS011;66758;52.078;5.070;2023-07-02T08:04:23;7.53;;;3.47;;
77598;SDS011;66758;52.078;5.070;2023-07-02T08:06:48;7.47;;;3.20;;
77598;SDS011;66758;52.078;5.070;2023-07-02T08:09:14;7.00;;;3.17;;
77598;SDS011;66758;52.078;5.070;2023-07-02T08:11:39;9.13;;;3.47;;
77598;SDS011;66758;52.078;5.070;2023-07-02T08:14:05;10.70;;;3.53;;
77598;SDS011;66758;52.078;5.070;2023-07-02T08:16:30;12.50;;;3.47;;
77598;SDS011;66758;52.078;5.070;2023-07-02T08:18:55;9.43;;;2.73;;
77598;SDS011;66758;52.078;5.070;2023-07-02T08:21:21;10.57;;;3.07;;
77598;SDS011;66758;52.078;5.070;2023-07-02T08:23:47;9.40;;;3.03;;
77598;SDS011;66758;52.078;5.070;2023-07-02T08:26:12;8.50;;;3.47;;
77598;SDS011;66758;52.078;5.070;2023-07-02T08:28:39;7.00;;;2.90;;
77598;SDS011;66758;52.078;5.070;2023-07-02T08:31:05;8.82;;;3.17;;
77598;SDS011;66758;52.078;5.070;2023-07-02T08:33:31;7.33;;;2.93;;
77598;SDS011;66758;52.078;5.070;2023-07-02T08:35:56;8.68;;;3.50;;
77598;SDS011;66758;52.078;5.070;2023-07-02T08:38:22;9.67;;;3.03;;
77598;SDS011;66758;52.078;5.070;2023-07-02T08:40:51;8.60;;;2.72;;
77598;SDS011;66758;52.078;5.070;2023-07-02T08:43:17;9.02;;;2.60;;
77598;SDS011;66758;52.078;5.070;2023-07-02T08:45:42;9.10;;;2.67;;
77598;SDS011;66758;52.078;5.070;2023-07-02T08:48:08;11.20;;;3.50;;
77598;SDS011;66758;52.078;5.070;2023-07-02T08:50:35;9.48;;;3.45;;
77598;SDS011;66758;52.078;5.070;2023-07-02T08:53:01;7.27;;;2.63;;
77598;SDS011;66758;52.078;5.070;2023-07-02T08:55:26;9.10;;;3.22;;
77598;SDS011;66758;52.078;5.070;2023-07-02T08:57:56;9.65;;;3.15;;
77598;SDS011;66758;52.078;5.070;2023-07-02T09:00:26;7.70;;;2.97;;
77598;SDS011;66758;52.078;5.070;2023-07-02T09:02:52;8.95;;;2.95;;
77598;SDS011;66758;52.078;5.070;2023-07-02T09:05:17;7.20;;;2.10;;
77598;SDS011;66758;52.078;5.070;2023-07-02T09:07:44;7.60;;;2.50;;
77598;SDS011;66758;52.078;5.070;2023-07-02T09:10:10;7.72;;;1.95;;
77598;SDS011;66758;52.078;5.070;2023-07-02T09:12:36;6.80;;;2.20;;
77598;SDS011;66758;52.078;5.070;2023-07-02T09:15:04;5.93;;;2.10;;
77598;SDS011;66758;52.078;5.070;2023-07-02T09:17:32;7.18;;;2.97;;
77598;SDS011;66758;52.078;5.070;2023-07-02T09:19:59;5.57;;;2.00;;
77598;SDS011;66758;52.078;5.070;2023-07-02T09:22:26;5.72;;;2.30;;
77598;SDS011;66758;52.078;5.070;2023-07-02T09:24:52;7.07;;;2.83;;
77598;SDS011;66758;52.078;5.070;2023-07-02T09:27:19;7.40;;;2.58;;
77598;SDS011;66758;52.078;5.070;2023-07-02T09:29:52;4.60;;;1.90;;
77598;SDS011;66758;52.078;5.070;2023-07-02T09:32:24;7.60;;;2.40;;
77598;SDS011;66758;52.078;5.070;2023-07-02T09:34:53;6.85;;;2.17;;
77598;SDS011;66758;52.078;5.070;2023-07-02T09:37:20;6.32;;;2.08;;
77598;SDS011;66758;52.078;5.070;2023-07-02T09:39:47;6.07;;;2.33;;
77598;SDS011;66758;52.078;5.070;2023-07-02T09:42:16;5.07;;;1.80;;
77598;SDS011;66758;52.078;5.070;2023-07-02T09:44:44;4.78;;;1.90;;
77598;SDS011;66758;52.078;5.070;2023-07-02T09:47:11;7.57;;;2.03;;
77598;SDS011;66758;52.078;5.070;2023-07-02T09:52:28;7.65;;;2.55;;
77598;SDS011;66758;52.078;5.070;2023-07-02T09:54:54;7.00;;;2.27;;
77598;SDS011;66758;52.078;5.070;2023-07-02T09:57:19;5.60;;;2.08;;
77598;SDS011;66758;52.078;5.070;2023-07-02T09:59:45;4.63;;;2.00;;
77598;SDS011;66758;52.078;5.070;2023-07-02T10:02:11;5.07;;;1.90;;
77598;SDS011;66758;52.078;5.070;2023-07-02T10:04:40;6.72;;;2.03;;
77598;SDS011;66758;52.078;5.070;2023-07-02T10:07:11;5.00;;;1.77;;
77598;SDS011;66758;52.078;5.070;2023-07-02T10:09:40;5.60;;;2.00;;
77598;SDS011;66758;52.078;5.070;2023-07-02T10:12:19;4.82;;;1.88;;
77598;SDS011;66758;52.078;5.070;2023-07-02T10:14:47;5.35;;;2.22;;
77598;SDS011;66758;52.078;5.070;2023-07-02T10:17:24;5.03;;;2.40;;
77598;SDS011;66758;52.078;5.070;2023-07-02T10:19:54;4.60;;;2.63;;
77598;SDS011;66758;52.078;5.070;2023-07-02T10:22:21;6.05;;;2.42;;
77598;SDS011;66758;52.078;5.070;2023-07-02T10:24:51;6.25;;;2.00;;
77598;SDS011;66758;52.078;5.070;2023-07-02T10:27:35;5.53;;;1.85;;
77598;SDS011;66758;52.078;5.070;2023-07-02T10:30:03;5.93;;;2.10;;
77598;SDS011;66758;52.078;5.070;2023-07-02T10:32:33;7.67;;;2.73;;
77598;SDS011;66758;52.078;5.070;2023-07-02T10:35:00;7.45;;;2.65;;
77598;SDS011;66758;52.078;5.070;2023-07-02T10:37:36;6.03;;;2.30;;
77598;SDS011;66758;52.078;5.070;2023-07-02T10:40:06;5.85;;;2.03;;
77598;SDS011;66758;52.078;5.070;2023-07-02T10:42:49;5.93;;;2.30;;
77598;SDS011;66758;52.078;5.070;2023-07-02T10:45:16;4.80;;;2.77;;
77598;SDS011;66758;52.078;5.070;2023-07-02T10:47:44;6.70;;;3.03;;
77598;SDS011;66758;52.078;5.070;2023-07-02T10:50:17;6.05;;;2.10;;
77598;SDS011;66758;52.078;5.070;2023-07-02T10:52:44;7.13;;;2.08;;
77598;SDS011;66758;52.078;5.070;2023-07-02T10:55:09;5.27;;;2.53;;
77598;SDS011;66758;52.078;5.070;2023-07-02T10:57:35;6.68;;;2.10;;
77598;SDS011;66758;52.078;5.070;2023-07-02T11:00:04;7.63;;;2.77;;
77598;SDS011;66758;52.078;5.070;2023-07-02T11:02:39;5.30;;;2.17;;
77598;SDS011;66758;52.078;5.070;2023-07-02T11:05:07;5.43;;;2.33;;
77598;SDS011;66758;52.078;5.070;2023-07-02T11:07:42;5.78;;;2.35;;
77598;SDS011;66758;52.078;5.070;2023-07-02T11:10:09;4.73;;;2.37;;
77598;SDS011;66758;52.078;5.070;2023-07-02T11:12:35;5.45;;;2.17;;
77598;SDS011;66758;52.078;5.070;2023-07-02T11:15:12;6.05;;;2.90;;
77598;SDS011;66758;52.078;5.070;2023-07-02T11:17:45;5.88;;;2.60;;
77598;SDS011;66758;52.078;5.070;2023-07-02T11:20:11;6.63;;;2.60;;
77598;SDS011;66758;52.078;5.070;2023-07-02T11:22:38;7.83;;;2.90;;
77598;SDS011;66758;52.078;5.070;2023-07-02T11:25:22;6.10;;;3.13;;
77598;SDS011;66758;52.078;5.070;2023-07-02T11:28:01;7.57;;;2.25;;
77598;SDS011;66758;52.078;5.070;2023-07-02T11:30:27;5.38;;;2.47;;
77598;SDS011;66758;52.078;5.070;2023-07-02T11:32:53;4.70;;;2.30;;
77598;SDS011;66758;52.078;5.070;2023-07-02T11:35:20;5.50;;;2.45;;
77598;SDS011;66758;52.078;5.070;2023-07-02T11:37:47;5.40;;;3.03;;
77598;SDS011;66758;52.078;5.070;2023-07-02T11:40:14;7.22;;;2.67;;
77598;SDS011;66758;52.078;5.070;2023-07-02T11:42:42;8.43;;;3.10;;
77598;SDS011;66758;52.078;5.070;2023-07-02T11:45:09;6.20;;;2.38;;
77598;SDS011;66758;52.078;5.070;2023-07-02T11:47:35;6.75;;;2.53;;
77598;SDS011;66758;52.078;5.070;2023-07-02T11:50:02;5.32;;;2.58;;
77598;SDS011;66758;52.078;5.070;2023-07-02T11:52:27;5.70;;;2.37;;
77598;SDS011;66758;52.078;5.070;2023-07-02T11:54:53;8.43;;;3.10;;
77598;SDS011;66758;52.078;5.070;2023-07-02T11:57:19;4.77;;;2.50;;
77598;SDS011;66758;52.078;5.070;2023-07-02T11:59:46;8.70;;;3.40;;
77598;SDS011;66758;52.078;5.070;2023-07-02T12:02:12;7.03;;;2.67;;
77598;SDS011;66758;52.078;5.070;2023-07-02T12:04:39;6.70;;;2.90;;
77598;SDS011;66758;52.078;5.070;2023-07-02T12:07:04;5.45;;;2.78;;
77598;SDS011;66758;52.078;5.070;2023-07-02T12:09:30;7.40;;;3.13;;
77598;SDS011;66758;52.078;5.070;2023-07-02T12:11:55;5.60;;;2.80;;
77598;SDS011;66758;52.078;5.070;2023-07-02T12:14:21;9.30;;;3.20;;
77598;SDS011;66758;52.078;5.070;2023-07-02T12:16:46;7.10;;;3.10;;
77598;SDS011;66758;52.078;5.070;2023-07-02T12:19:11;6.03;;;2.70;;
77598;SDS011;66758;52.078;5.070;2023-07-02T12:21:37;5.13;;;2.80;;
77598;SDS011;66758;52.078;5.070;2023-07-02T12:24:02;11.43;;;4.87;;
77598;SDS011;66758;52.078;5.070;2023-07-02T12:26:28;6.57;;;2.97;;
77598;SDS011;66758;52.078;5.070;2023-07-02T12:28:54;6.03;;;2.55;;
77598;SDS011;66758;52.078;5.070;2023-07-02T12:31:20;9.13;;;3.28;;
77598;SDS011;66758;52.078;5.070;2023-07-02T12:33:45;7.00;;;3.33;;
77598;SDS011;66758;52.078;5.070;2023-07-02T12:36:11;6.90;;;3.30;;
77598;SDS011;66758;52.078;5.070;2023-07-02T12:38:36;8.33;;;2.87;;
77598;SDS011;66758;52.078;5.070;2023-07-02T12:41:01;7.97;;;3.65;;
77598;SDS011;66758;52.078;5.070;2023-07-02T12:43:27;6.33;;;2.83;;
77598;SDS011;66758;52.078;5.070;2023-07-02T12:45:52;10.73;;;3.40;;
77598;SDS011;66758;52.078;5.070;2023-07-02T12:48:21;9.27;;;3.53;;
77598;SDS011;66758;52.078;5.070;2023-07-02T12:50:53;5.20;;;2.83;;
77598;SDS011;66758;52.078;5.070;2023-07-02T12:53:26;6.68;;;2.80;;
77598;SDS011;66758;52.078;5.070;2023-07-02T12:55:53;7.45;;;2.75;;
77598;SDS011;66758;52.078;5.070;2023-07-02T12:58:19;6.47;;;3.47;;
77598;SDS011;66758;52.078;5.070;2023-07-02T13:00:45;7.60;;;3.13;;
77598;SDS011;66758;52.078;5.070;2023-07-02T13:03:11;8.07;;;2.97;;
77598;SDS011;66758;52.078;5.070;2023-07-02T13:05:38;7.68;;;2.80;;
77598;SDS011;66758;52.078;5.070;2023-07-02T13:08:04;6.40;;;2.87;;
77598;SDS011;66758;52.078;5.070;2023-07-02T13:10:30;6.30;;;3.30;;
77598;SDS011;66758;52.078;5.070;2023-07-02T13:12:55;7.97;;;3.63;;
77598;SDS011;66758;52.078;5.070;2023-07-02T13:15:22;6.63;;;3.30;;
77598;SDS011;66758;52.078;5.070;2023-07-02T13:17:47;8.20;;;2.88;;
77598;SDS011;66758;52.078;5.070;2023-07-02T13:20:13;8.07;;;3.30;;
77598;SDS011;66758;52.078;5.070;2023-07-02T13:22:39;7.10;;;2.97;;
77598;SDS011;66758;52.078;5.070;2023-07-02T13:25:05;7.55;;;3.03;;
77598;SDS011;66758;52.078;5.070;2023-07-02T13:27:31;7.60;;;3.33;;
77598;SDS011;66758;52.078;5.070;2023-07-02T13:29:57;7.60;;;3.40;;
77598;SDS011;66758;52.078;5.070;2023-07-02T13:32:22;7.50;;;3.37;;
77598;SDS011;66758;52.078;5.070;2023-07-02T13:34:48;13.43;;;3.47;;
77598;SDS011;66758;52.078;5.070;2023-07-02T13:37:13;7.83;;;3.70;;
77598;SDS011;66758;52.078;5.070;2023-07-02T13:39:43;6.70;;;3.65;;
77598;SDS011;66758;52.078;5.070;2023-07-02T13:42:08;8.93;;;3.40;;
77598;SDS011;66758;52.078;5.070;2023-07-02T13:44:34;8.88;;;4.38;;
77598;SDS011;66758;52.078;5.070;2023-07-02T13:46:59;7.67;;;3.40;;
77598;SDS011;66758;52.078;5.070;2023-07-02T13:49:25;9.73;;;3.73;;
77598;SDS011;66758;52.078;5.070;2023-07-02T13:51:50;7.60;;;3.60;;
77598;SDS011;66758;52.078;5.070;2023-07-02T13:54:16;7.07;;;3.40;;
77598;SDS011;66758;52.078;5.070;2023-07-02T13:56:43;6.97;;;3.10;;
77598;SDS011;66758;52.078;5.070;2023-07-02T13:59:09;7.32;;;3.58;;
77598;SDS011;66758;52.078;5.070;2023-07-02T14:01:34;7.00;;;2.87;;
77598;SDS011;66758;52.078;5.070;2023-07-02T14:04:04;7.38;;;3.75;;
77598;SDS011;66758;52.078;5.070;2023-07-02T14:06:30;5.60;;;3.00;;
77598;SDS011;66758;52.078;5.070;2023-07-02T14:08:55;7.47;;;2.92;;
77598;SDS011;66758;52.078;5.070;2023-07-02T14:11:21;8.97;;;3.93;;
77598;SDS011;66758;52.078;5.070;2023-07-02T14:13:50;8.18;;;3.22;;
77598;SDS011;66758;52.078;5.070;2023-07-02T14:16:16;10.02;;;3.55;;
77598;SDS011;66758;52.078;5.070;2023-07-02T14:18:41;7.50;;;3.95;;
77598;SDS011;66758;52.078;5.070;2023-07-02T14:21:07;9.57;;;2.97;;
77598;SDS011;66758;52.078;5.070;2023-07-02T14:23:33;8.73;;;4.15;;
77598;SDS011;66758;52.078;5.070;2023-07-02T14:25:58;7.33;;;3.47;;
77598;SDS011;66758;52.078;5.070;2023-07-02T14:28:24;6.03;;;3.30;;
77598;SDS011;66758;52.078;5.070;2023-07-02T14:30:59;5.70;;;3.03;;
77598;SDS011;66758;52.078;5.070;2023-07-02T14:33:26;7.82;;;3.70;;
77598;SDS011;66758;52.078;5.070;2023-07-02T14:35:54;9.88;;;4.63;;
77598;SDS011;66758;52.078;5.070;2023-07-02T14:38:19;6.80;;;3.60;;
77598;SDS011;66758;52.078;5.070;2023-07-02T14:40:45;8.32;;;3.35;;
77598;SDS011;66758;52.078;5.070;2023-07-02T14:43:12;7.43;;;2.75;;